默认 日期 大小 文件数 浏览量 最新下载 xml
vol.2磁力链接相关资源由用户搜索指令自动获取,结果来源于网络,本站不存储任何资料,亦不承担任何责任,请于24小时内删除,搜索到47314个磁力,显示前4000条数据,用时65ms。
    {"001.jpg": 263701, "002.jpg": 268929, "003.jpg": 379885, "004.jpg": 358747, "005.jpg": 247311, "006.jpg": 343324, "007.jpg": 358466, "008.jpg": 427935, "009.jpg": 461819, "010.jpg": 470035, "011.jpg": 477141, "012.jpg": 472782, "013.jpg": 421823, "014.jpg ...
创建时间: 2018-11-18 21:45:53 大小:81.18 MB 文件数量:188 热度:9 最近下载:2023-04-17 01:40:07
    {"(DVDISO)(アニメ) 謎の彼女X 2 [2012.07.25][iso+mds+L](rr3%).part1.rar": 2000000000, "(DVDISO)(アニメ) 謎の彼女X 2 [2012.07.25][iso+mds+L](rr3%).part2.rar": 1453271458}
创建时间: 2018-11-18 21:46:29 大小:3.22 GB 文件数量:2 热度:50 最近下载:2025-09-18 17:36:13
    {"26. Areo - Elysia (Original Mix).mp3": 19284751, "09. Robert - Jungle (Original Mix).mp3": 10930796, "31. Rawanara - East (Original Mix).mp3": 11922404, "16. QRVZH - Sunshine (Original Mix).mp3": 13041492, "08. Eric Rhowdz - Sea (Original Mix).mp3": ...
创建时间: 2018-11-18 21:50:25 大小:553.47 MB 文件数量:50 热度:11 最近下载:2023-04-17 01:40:08
    {"folder.jpg": 967348, "01 - The Mord - Jam (Original Mix).mp3": 10099231, "03 - Rautu - Armagedon (Original Mix).mp3": 9906969, "05 - Rautu - Cybermode (Original Mix).mp3": 7983312, "09 - Rautu - Deep Space (Original Mix).mp3": 9782629, "07 - Rautu - ...
创建时间: 2018-11-18 22:01:58 大小:87.74 MB 文件数量:11 热度:11 最近下载:2023-04-17 01:50:03
    {"Readme.txt": 160, "Guardians of the Galaxy Vol. 2 2017.720p.BRRip.x264.AAC-Ozlem.avi": 792796730}
创建时间: 2018-11-18 22:06:33 大小:756.07 MB 文件数量:2 热度:14 最近下载:2023-04-17 01:50:07
    ... mp3": 3208055}, "Christmas Songs": {"2-75 Rocking.mp3": 3870356, " ... Medley (AngelsFromTheRealms_CelebrateTheChild_AngelsWeHaveHeard_HarkTheHeraldA.mp3": 3697586}, "Cd 2": {"11 - You Are Emmanuel - ... ": 7934726}, "CD 2": {"17 - Medley (Part 2)- Bing Crosby.mp3": ...
创建时间: 2018-11-18 22:08:01 大小:5.66 GB 文件数量:1263 热度:13 最近下载:2025-02-11 18:39:03
    {"Fx.rar": 4053786, "BPM.inf": 121, "Pad.rar": 32999854, "Bass.rar": 32767715, "Keys.rar": 35899895, "Choir.rar": 26696751, "Drums.rar": 91695943, "Synth.rar": 23412665, "Guitar.rar": 74443850, "Vocals.rar": 97207631, "Strings.rar": 19582973, "Guitar Solo. ...
创建时间: 2018-11-18 22:16:51 大小:495.32 MB 文件数量:13 热度:10 最近下载:2023-04-17 02:00:06
    {"Richie Rich - Salsa House.flac": 47616618, "Jomanda - Make My Body Rock.flac": 54719172, "Paul Simpson - Musical Freedom.flac": 43110848, "S-Express - Theme From S-Express.flac": 40585222, "Charles B - Lack of Love (Club Mix).flac": 44580399, "DNA ...
创建时间: 2018-11-18 22:16:56 大小:569.08 MB 文件数量:14 热度:12 最近下载:2025-02-19 08:02:01
    {"57. Giorno - Free (G! Mix).mp3": 9745807, "28. Rob & Chris - Die Show Beginnt.mp3": 8258925, "76. Scooter - Friends (Alari Remix).mp3": 14501116, "80. Jens O - On and On (Extended Mix).mp3": 10577525, "58. Nick Skitz - Antisocial (VB Remix).mp3": ...
创建时间: 2018-11-18 22:17:52 大小:1002.76 MB 文件数量:100 热度:11 最近下载:2023-04-17 02:00:12
    {"CD1": {"10-Mome - Aloha.mp3": 8811643, "15-Slimane - Adieu.mp3": 9138810, "01-LP - Lost on You.mp3": 10790973, "05-Amir - On dirait.mp3": 7917197, "12-ENEA - Je t'ecris.mp3": 8207003, "06-Alvaro Soler - Sofia.mp3": 8531094, "14-Meghan Trainor - NO.mp3": ...
创建时间: 2018-11-18 22:31:46 大小:480.71 MB 文件数量:63 热度:9 最近下载:2023-04-17 02:10:04
    {"How2PlayHEVC.nfo": 1162, "Guardians.of.the.Galaxy.Vol.2.2017.BluRay.1080p.x265.10bit-z97.mkv": 2679882387, "Guardians.of.the.Galaxy.Vol.2.2017.BluRay.1080p.x265.10bit-z97.nfo": 2707}
创建时间: 2018-11-18 22:37:37 大小:2.5 GB 文件数量:3 热度:11 最近下载:2023-04-17 02:10:05
    ... ": 1885}, "Track 2": {"2 Dminor bass.mid": 372, "2 Dminor lead.mid ... , "15 Hats.wav": 4006223, "2 Snare.wav": 4006217, "6 Snare ... .wav": 4006258, "2 Dminor bass.wav": 4006258, "2 Dminor lead.wav ... 4006258}, "DMS Progressive House MIDI Vol 2 Readme.pdf": 1900775}
创建时间: 2018-11-18 22:42:39 大小:135.67 MB 文件数量:95 热度:17 最近下载:2025-02-28 12:35:04
    {"VA - Relax Vol. 2 (2006) [APE-CUE]": {"Covers ... Relax Vol. 2.ape": 438194173, "VA - Relax Vol. 2.cue": 3145, "VA - Relax Vol. 2. ... log": 2659}, "VA - Relax Vol. ... JPG": 901004}, "VA - Relax Vol. 3.ape": 494852624, "VA - ...
创建时间: 2018-11-18 22:47:11 大小:1.76 GB 文件数量:25 热度:16 最近下载:2025-08-03 05:07:04
    {"[BANG.Com] - Glory Goo Vol.-2 XXX NEW August 04, 2016.avi": 2040429338}
创建时间: 2018-11-18 22:57:58 大小:1.9 GB 文件数量:1 热度:48 最近下载:2025-08-28 15:36:05
    ... .jpg": 117607, "1.jpg": 174219, "2.jpg": 224039, "3.jpg": 216661 ...
创建时间: 2018-11-18 23:16:40 大小:11.21 MB 文件数量:52 热度:10 最近下载:2025-04-10 02:02:02
    {"Torrent_downloaded_from_Demonoid_-_www.demonoid.pw_.txt": 59, "Guardians of the Galaxy Vol. 2 (2017) DVD R4 NTSC-R4NY3RY.ISO": 4681474048}
创建时间: 2018-11-18 23:50:25 大小:4.36 GB 文件数量:2 热度:9 最近下载:2023-04-17 02:30:06
    ... vol. 2 Disc 2.cue": 3244, "Yuzo Koshiro - Yuzo Koshiro Best Collection vol. 2 Disc 2 ... Best Collection vol.2 - CD 2.jpg": 3033027, "Yuzo Koshiro - Best Collection vol.2 - ... Best Collection vol.2 - inside 2.jpg": 3721414, "Yuzo Koshiro - Best Collection vol.2 - ...
创建时间: 2018-11-18 23:58:35 大小:1.31 GB 文件数量:104 热度:13 最近下载:2025-08-14 12:49:02
    ... Jazz, Sensual And Smooth Lounge, Vol.2 (2014) MP3.jpg": 327993, "10 ...
创建时间: 2018-11-19 00:31:42 大小:353.43 MB 文件数量:31 热度:12 最近下载:2025-08-06 09:38:02
    {"More Books.txt": 2922, "important.read me 1st.JPG": 58738, "Torrent downloaded from Demonoid.com.txt": 49, "Mackey - Encyclopedia of Freemasonry Vol. 2 (1916).pdf": 73342113, "Encyclopedia of Police Forces and Correctional Systems.pdf": 73350534}
创建时间: 2018-11-19 00:41:25 大小:139.96 MB 文件数量:5 热度:18 最近下载:2025-08-03 02:38:01
    ... Companion Vol 2 - 1.mp3": 36366858, "Outlandish Companion Vol 2 - 2.mp3": 36857226, "Outlandish Companion Vol 2 ... - 3.mp3": 36856074, "Outlandish Companion Vol 2 ...
创建时间: 2018-11-19 00:45:13 大小:591.34 MB 文件数量:17 热度:13 最近下载:2025-05-19 16:55:02